Terminal Aerodrome Forecast
Issued by NWS Melbourne, FL

Current Version | Previous Version | Text Only | Print | Product List | Glossary On
Versions: 1 2 3 4 5 6 7 8 9 10 11 12 13 14 15 16 17 18
000
FTUS42 KMLB 242300
TAFMLB
TAF
KMLB 242320Z 2500/2524 03010KT P6SM BKN050
     FM250400 36006KT P6SM SCT040
     FM251700 01013KT P6SM SCT035=

USA.gov is the U.S. government's official web portal to all federal, state and local government web resources and services.